Time;durP1;ratioP1;P1;durP2;ratioP2;P2;SDS_P1;SDS_P2;PMS_P1;PMS_P2;Temp;Humidity;BMP_temperature;BMP_pressure;BME280_temperature;BME280_humidity;BME280_pressure;Samples;Min_cycle;Max_cycle;Signal;HPM_P1;HPM_P2
2021/04/22 00:00:43;;;;;;;7.93;5.80;;;7.10;85.00;;;;;;4883214;29;20029;-90
2021/04/22 00:03:11;;;;;;;8.27;5.78;;;7.10;84.80;;;;;;4882167;29;20025;-90
2021/04/22 00:05:39;;;;;;;9.25;6.38;;;7.20;84.70;;;;;;4882388;29;20061;-90
2021/04/22 02:30:19;;;;;;;13.57;10.65;;;6.10;81.70;;;;;;6068138;22;5642976;-94
2021/04/22 02:32:52;;;;;;;10.52;9.18;;;6.50;88.10;;;;;;6256122;23;20054;-94
2021/04/22 02:35:40;;;;;;;14.40;9.30;;;6.50;88.30;;;;;;6255216;23;19996;-94
2021/04/22 02:38:18;;;;;;;10.77;8.48;;;6.50;88.30;;;;;;6239796;22;20004;-95
2021/04/22 02:43:26;;;;;;;11.57;8.80;;;6.60;88.40;;;;;;6300506;22;20019;-94
2021/04/22 02:49:13;;;;;;;;;;;;;;;;;;;;;
2021/04/22 02:52:05;;;;;;;10.43;7.68;;;6.60;88.00;;;;;;6315887;22;20067;-92
2021/04/22 02:54:59;;;;;;;10.75;7.80;;;6.60;87.90;;;;;;6315468;22;20035;-92
2021/04/22 02:57:45;;;;;;;9.38;7.32;;;6.70;87.90;;;;;;6315615;22;19991;-91
2021/04/22 03:00:26;;;;;;;10.00;7.85;;;6.60;87.80;;;;;;6315541;22;19986;-91
2021/04/22 03:02:59;;;;;;;11.82;8.15;;;6.70;87.90;;;;;;6284568;22;20026;-93
2021/04/22 03:05:53;;;;;;;11.75;7.97;;;6.70;88.00;;;;;;6286722;22;20007;-94
2021/04/22 03:08:33;;;;;;;11.15;8.07;;;6.70;88.00;;;;;;6286770;22;19994;-95
2021/04/22 03:11:22;;;;;;;10.70;8.13;;;6.80;88.10;;;;;;6284279;22;20007;-93
2021/04/22 03:14:01;;;;;;;10.00;7.53;;;6.80;87.90;;;;;;6286303;22;19984;-95
2021/04/22 03:16:29;;;;;;;10.00;7.30;;;6.90;88.00;;;;;;6284277;22;19995;-94
2021/04/22 03:19:10;;;;;;;11.35;7.47;;;6.90;87.90;;;;;;6265642;23;19992;-93
2021/04/22 03:21:42;;;;;;;10.15;7.00;;;7.00;87.90;;;;;;6255580;23;20022;-93
2021/04/22 03:24:27;;;;;;;10.90;8.15;;;7.10;87.80;;;;;;6254049;23;20008;-93
2021/04/22 03:27:05;;;;;;;8.82;7.10;;;7.10;87.70;;;;;;6281048;23;19996;-94
2021/04/22 03:29:36;;;;;;;8.93;6.95;;;7.20;87.60;;;;;;6251270;23;20000;-94
2021/04/22 03:32:05;;;;;;;9.00;6.85;;;7.20;87.50;;;;;;6245140;23;19996;-94
2021/04/22 03:34:33;;;;;;;10.88;8.25;;;7.30;87.30;;;;;;6246591;23;20015;-95
2021/04/22 03:36:59;;;;;;;11.00;7.97;;;7.30;87.10;;;;;;6245559;23;20007;-94
2021/04/22 03:39:49;;;;;;;;;;;;;;;;;;;;;
2021/04/22 03:42:21;;;;;;;10.63;7.45;;;7.40;86.80;;;;;;6273560;22;20015;-95
2021/04/22 03:44:47;;;;;;;9.85;7.13;;;7.40;86.80;;;;;;6247362;23;20020;-94
2021/04/22 03:47:20;;;;;;;10.20;7.03;;;7.40;86.70;;;;;;6244942;23;20007;-95
2021/04/22 03:49:49;;;;;;;8.30;6.57;;;7.50;86.70;;;;;;6246742;23;20008;-94
2021/04/22 03:52:30;;;;;;;;;;;;;;;;;;;;;
2021/04/22 03:55:08;;;;;;;8.95;7.63;;;7.60;86.70;;;;;;6271949;23;20070;-95
2021/04/22 03:58:04;;;;;;;;;;;;;;;;;;;;;
2021/04/22 04:00:53;;;;;;;10.30;7.88;;;7.80;86.20;;;;;;6272154;23;20004;-93
2021/04/22 04:03:36;;;;;;;11.57;8.85;;;7.80;85.90;;;;;;6272225;23;20012;-95
2021/04/22 04:06:37;;;;;;;;;;;;;;;;;;;;;
2021/04/22 04:09:08;;;;;;;11.13;8.38;;;8.00;85.80;;;;;;6272392;23;20007;-94
2021/04/22 04:11:42;;;;;;;11.80;9.05;;;8.10;85.80;;;;;;6272961;23;19976;-93
2021/04/22 04:14:32;;;;;;;11.23;8.07;;;8.20;85.60;;;;;;6246200;23;20000;-95
2021/04/22 04:17:09;;;;;;;11.48;8.50;;;8.30;85.30;;;;;;6243734;23;19997;-95
2021/04/22 04:20:02;;;;;;;10.95;9.05;;;8.40;85.20;;;;;;6273410;22;20013;-93
2021/04/22 04:23:11;;;;;;;;;;;;;;;;;;;;;
2021/04/22 04:25:46;;;;;;;9.32;7.93;;;8.70;84.80;;;;;;6274146;23;19984;-93
2021/04/22 04:28:18;;;;;;;10.10;8.43;;;8.80;84.40;;;;;;6273606;23;20003;-94
2021/04/22 04:30:51;;;;;;;10.07;8.25;;;8.90;84.20;;;;;;6247848;23;19988;-93
2021/04/22 04:33:38;;;;;;;;;;;;;;;;;;;;;
2021/04/22 04:36:08;;;;;;;13.95;8.27;;;9.00;83.60;;;;;;6272558;22;20331;-95
2021/04/22 04:38:48;;;;;;;8.90;7.18;;;9.10;83.40;;;;;;6246878;23;20004;-93
2021/04/22 04:41:33;;;;;;;;;;;;;;;;;;;;;
2021/04/22 04:47:08;;;;;;;;;;;;;;;;;;;;;
2021/04/22 04:52:48;;;;;;;10.73;8.10;;;9.50;82.00;;;;;;6258870;22;20018;-93
2021/04/22 04:55:25;;;;;;;11.70;8.35;;;9.50;81.80;;;;;;6273084;22;20004;-93
2021/04/22 05:01:17;;;;;;;9.35;7.43;;;9.60;81.40;;;;;;6274716;22;20007;-94
2021/04/22 05:03:57;;;;;;;9.75;8.00;;;9.70;80.70;;;;;;6241949;22;20069;-92
2021/04/22 05:12:38;;;;;;;;;;;;;;;;;;;;;
2021/04/22 05:18:26;;;;;;;13.30;7.22;;;10.10;79.90;;;;;;6224192;22;20099;-92
2021/04/22 05:23:38;;;;;;;10.52;8.48;;;10.30;79.90;;;;;;6275229;22;20029;-93
2021/04/22 05:26:11;;;;;;;11.20;8.25;;;10.40;79.60;;;;;;6269878;22;20027;-92
2021/04/22 05:31:21;;;;;;;15.88;10.93;;;10.50;78.80;;;;;;6270676;22;20008;-94
2021/04/22 05:41:42;;;;;;;10.15;8.57;;;10.90;78.60;;;;;;6223514;22;20016;-92
2021/04/22 05:52:53;;;;;;;10.23;7.68;;;11.20;77.20;;;;;;6162788;22;19919;31
2021/04/22 06:15:17;;;;;;;12.68;8.30;;;11.90;75.10;;;;;;6242289;22;20038;-91
2021/04/22 06:23:44;;;;;;;10.57;8.63;;;12.30;74.30;;;;;;6284560;22;20035;-93
2021/04/22 06:28:52;;;;;;;10.70;7.63;;;12.50;74.60;;;;;;6198117;22;20004;-93
2021/04/22 06:32:05;;;;;;;9.52;8.02;;;12.70;74.50;;;;;;6276650;22;20003;-93
2021/04/22 06:40:12;;;;;;;11.63;9.05;;;13.10;71.90;;;;;;6244902;22;20071;-91
2021/04/22 06:43:14;;;;;;;;;;;;;;;;;;;;;
2021/04/22 06:56:28;;;;;;;10.20;8.07;;;13.60;69.70;;;;;;6217862;22;20012;-93
2021/04/22 07:07:36;;;;;;;;;;;;;;;;;;;;;
2021/04/22 07:12:46;;;;;;;9.52;7.50;;;14.40;67.40;;;;;;6240318;22;20068;-93
2021/04/22 07:15:26;;;;;;;;;;;;;;;;;;;;;
2021/04/22 07:18:11;;;;;;;8.43;7.18;;;14.70;67.30;;;;;;6268306;22;20005;-94
2021/04/22 07:21:05;;;;;;;10.45;7.10;;;14.80;66.40;;;;;;6241437;23;20043;-93
2021/04/22 07:26:23;;;;;;;;;;;;;;;;;;;;;
2021/04/22 07:32:08;;;;;;;7.47;5.55;;;15.40;64.00;;;;;;6221656;22;20014;-93
2021/04/22 07:34:48;;;;;;;7.53;6.25;;;15.50;65.10;;;;;;6220428;22;21075;-92
2021/04/22 07:37:50;;;;;;;6.93;5.60;;;15.70;62.30;;;;;;6151850;22;20246;-93
2021/04/22 07:45:44;;;;;;;6.68;5.97;;;16.10;62.60;;;;;;6270742;22;20070;-91
2021/04/22 07:48:52;;;;;;;7.10;5.82;;;16.20;61.40;;;;;;6144027;22;20807;-93
2021/04/22 07:51:49;;;;;;;5.80;4.78;;;16.20;61.50;;;;;;6244117;23;20009;-94
2021/04/22 07:54:51;;;;;;;6.30;5.70;;;16.40;61.30;;;;;;6245879;22;20075;-94
2021/04/22 08:00:23;;;;;;;;;;;;;;;;;;;;;
2021/04/22 08:17:02;;;;;;;6.38;5.22;;;17.00;57.20;;;;;;6217582;22;20145;-92
2021/04/22 08:19:43;;;;;;;;;;;;;;;;;;;;;
2021/04/22 08:22:18;;;;;;;6.13;4.88;;;17.20;56.30;;;;;;6271315;23;19993;-94
2021/04/22 08:25:19;;;;;;;;;;;;;;;;;;;;;
2021/04/22 08:28:18;;;;;;;7.22;5.32;;;17.30;55.00;;;;;;6303208;22;19996;-94
2021/04/22 08:31:12;;;;;;;6.10;4.90;;;17.40;51.30;;;;;;6275983;22;20063;-93
2021/04/22 08:34:19;;;;;;;6.05;5.45;;;17.40;53.20;;;;;;6275987;22;20063;-93
2021/04/22 08:36:59;;;;;;;6.15;5.53;;;17.50;53.40;;;;;;6301949;22;20020;-93
2021/04/22 08:42:16;;;;;;;;;;;;;;;;;;;;;
2021/04/22 08:44:47;;;;;;;6.68;5.15;;;17.70;51.20;;;;;;6275533;22;20027;-91
2021/04/22 08:47:21;;;;;;;5.60;4.85;;;17.90;50.70;;;;;;6279207;22;19998;-92
2021/04/22 08:49:55;;;;;;;5.05;4.50;;;18.00;50.70;;;;;;6279073;22;20011;-91
2021/04/22 08:52:48;;;;;;;5.38;4.88;;;18.20;51.80;;;;;;6256314;22;20108;-90
2021/04/22 08:55:32;;;;;;;4.10;3.73;;;18.40;50.10;;;;;;6244111;22;20079;-95
2021/04/22 08:58:09;;;;;;;4.88;4.35;;;18.60;48.80;;;;;;6245649;22;20293;-93
2021/04/22 09:00:55;;;;;;;4.80;4.05;;;18.90;50.10;;;;;;6241759;23;20015;-94
2021/04/22 09:03:24;;;;;;;4.95;4.15;;;19.10;49.60;;;;;;6242807;23;20023;-94
2021/04/22 09:06:01;;;;;;;7.00;4.30;;;19.20;49.70;;;;;;6241513;23;19997;-91
2021/04/22 09:08:44;;;;;;;5.18;4.68;;;19.20;47.50;;;;;;6208863;23;20020;-92
2021/04/22 09:11:11;;;;;;;4.25;3.85;;;19.10;46.60;;;;;;6234575;23;20000;-96
2021/04/22 09:13:38;;;;;;;5.05;3.90;;;18.90;47.20;;;;;;6231877;23;20019;-95
2021/04/22 09:16:20;;;;;;;4.30;3.67;;;18.90;47.50;;;;;;6230631;23;20000;-95
2021/04/22 09:19:04;;;;;;;5.82;3.72;;;18.90;47.90;;;;;;6215877;23;20003;-94
2021/04/22 09:21:31;;;;;;;;;;;18.90;47.20;;;;;;6198780;23;20008;-94
2021/04/22 09:24:09;;;;;;;6.20;4.63;;;18.80;46.20;;;;;;6205425;23;19911;-94
2021/04/22 09:27:03;;;;;;;6.28;3.70;;;18.80;47.20;;;;;;6203664;23;20000;-94
2021/04/22 09:29:44;;;;;;;4.45;3.50;;;18.90;47.50;;;;;;6198495;23;20032;-92
2021/04/22 09:32:30;;;;;;;5.55;3.85;;;19.00;47.50;;;;;;6202053;23;19996;-94
2021/04/22 09:34:58;;;;;;;3.35;2.97;;;19.10;46.70;;;;;;6209776;23;19997;-93
2021/04/22 09:37:41;;;;;;;4.03;3.50;;;19.20;47.00;;;;;;6201971;23;20080;-94
2021/04/22 09:40:36;;;;;;;3.50;3.05;;;19.40;45.90;;;;;;6211422;23;19991;-94
2021/04/22 09:43:06;;;;;;;6.60;4.53;;;19.50;44.60;;;;;;6221552;22;20028;-93
2021/04/22 09:45:34;;;;;;;4.65;4.20;;;19.50;45.20;;;;;;6266276;23;20026;-94
2021/04/22 09:48:00;;;;;;;5.45;3.58;;;19.40;45.10;;;;;;6265132;23;20068;-95
2021/04/22 09:50:32;;;;;;;4.97;3.88;;;19.30;45.40;;;;;;6264830;22;20057;-94
2021/04/22 09:53:04;;;;;;;5.95;5.35;;;19.20;42.80;;;;;;6266077;22;20026;-95
2021/04/22 09:55:31;;;;;;;5.63;4.80;;;18.90;43.40;;;;;;6240660;22;20008;-94
2021/04/22 09:57:57;;;;;;;5.43;4.30;;;18.60;44.60;;;;;;6262041;22;20011;-95
2021/04/22 10:00:32;;;;;;;5.63;4.53;;;18.30;45.00;;;;;;6259983;22;19999;-95
2021/04/22 10:03:00;;;;;;;5.57;4.55;;;18.20;44.80;;;;;;6256933;22;20030;-95
2021/04/22 10:05:30;;;;;;;5.07;4.57;;;18.10;44.90;;;;;;6261000;22;20080;-94
2021/04/22 10:08:18;;;;;;;5.13;3.85;;;18.00;45.10;;;;;;6255973;22;20004;-94
2021/04/22 10:11:05;;;;;;;7.43;3.83;;;17.90;45.10;;;;;;6232055;22;20000;-94
2021/04/22 10:13:43;;;;;;;4.30;3.83;;;18.00;46.00;;;;;;6259460;22;20047;-95
2021/04/22 10:16:11;;;;;;;4.65;3.80;;;18.10;45.20;;;;;;6258774;22;20012;-94
2021/04/22 10:18:44;;;;;;;4.00;3.60;;;18.20;45.60;;;;;;6227777;23;20319;-93
2021/04/22 10:21:12;;;;;;;5.07;4.57;;;18.50;45.10;;;;;;6231012;23;20024;-94
2021/04/22 10:23:38;;;;;;;4.78;3.80;;;18.70;45.40;;;;;;6232964;23;19997;-94
2021/04/22 10:26:04;;;;;;;7.15;3.80;;;18.90;45.50;;;;;;6229838;23;19996;-93
2021/04/22 10:28:31;;;;;;;6.15;3.72;;;19.00;45.20;;;;;;6236738;23;20073;-95
2021/04/22 10:30:57;;;;;;;4.47;4.03;;;19.20;44.60;;;;;;6258976;22;20023;-95
2021/04/22 10:33:27;;;;;;;4.95;3.90;;;19.30;43.90;;;;;;6227338;23;20043;-96
2021/04/22 10:35:54;;;;;;;4.72;3.95;;;19.40;43.80;;;;;;6252121;22;20000;-92
2021/04/22 10:38:21;;;;;;;3.80;3.50;;;19.60;42.70;;;;;;6222128;23;20030;-93
2021/04/22 10:40:50;;;;;;;7.72;3.60;;;19.70;42.90;;;;;;6224261;23;20004;-92
2021/04/22 10:43:17;;;;;;;4.68;3.92;;;19.90;42.80;;;;;;6227257;23;20305;-93
2021/04/22 10:45:43;;;;;;;4.10;3.50;;;19.90;42.70;;;;;;6229795;23;20116;-93
2021/04/22 10:48:09;;;;;;;5.38;4.03;;;20.00;42.80;;;;;;6228893;23;20056;-95
2021/04/22 10:50:39;;;;;;;4.13;3.67;;;19.90;42.50;;;;;;6253334;23;20007;-89
2021/04/22 10:53:19;;;;;;;6.10;4.00;;;19.90;42.80;;;;;;6224044;23;19996;-88
2021/04/22 10:55:46;;;;;;;4.30;3.83;;;20.00;42.40;;;;;;6223177;23;20001;-89
2021/04/22 10:58:24;;;;;;;12.27;4.43;;;20.10;42.80;;;;;;6222596;23;20079;-90
2021/04/22 11:00:55;;;;;;;8.98;3.90;;;20.30;42.80;;;;;;6224107;23;19997;-91
2021/04/22 11:03:33;;;;;;;4.07;3.40;;;20.50;42.80;;;;;;6221785;23;20404;-90
2021/04/22 11:06:09;;;;;;;4.10;3.20;;;20.60;42.70;;;;;;6222300;23;20004;-91
2021/04/22 11:08:40;;;;;;;3.67;3.38;;;20.70;42.00;;;;;;6224614;23;20008;-91
2021/04/22 11:11:31;;;;;;;4.50;3.65;;;20.70;42.50;;;;;;6224953;23;19996;-91
2021/04/22 11:14:16;;;;;;;5.07;3.85;;;20.90;41.00;;;;;;6252554;23;20074;-93
2021/04/22 11:16:53;;;;;;;3.70;3.40;;;20.90;40.90;;;;;;6223476;23;20008;-92
2021/04/22 11:19:40;;;;;;;5.22;3.35;;;20.90;41.70;;;;;;6252449;23;20054;-92
2021/04/22 11:22:11;;;;;;;3.90;3.33;;;20.90;41.50;;;;;;6223411;23;19996;-91
2021/04/22 11:24:44;;;;;;;3.72;3.33;;;20.90;41.80;;;;;;6224073;23;20059;-91
2021/04/22 11:27:17;;;;;;;3.35;3.05;;;21.00;42.20;;;;;;6230509;23;20417;-92
2021/04/22 11:29:49;;;;;;;7.75;4.40;;;21.20;42.40;;;;;;6228312;23;20016;-94
2021/04/22 11:32:51;;;;;;;5.55;3.85;;;21.40;41.90;;;;;;6252893;23;20001;-91
2021/04/22 11:35:23;;;;;;;5.43;3.92;;;21.50;40.80;;;;;;6249279;23;19997;-93
2021/04/22 11:38:12;;;;;;;5.43;3.67;;;21.50;40.20;;;;;;6222175;23;20000;-93
2021/04/22 11:40:46;;;;;;;4.28;3.88;;;21.30;39.80;;;;;;6251409;23;20065;-94
2021/04/22 11:43:22;;;;;;;3.78;3.38;;;21.10;39.20;;;;;;6199853;23;20049;-94
2021/04/22 11:45:55;;;;;;;4.57;3.95;;;21.00;39.70;;;;;;6218695;23;19996;-92
2021/04/22 11:48:22;;;;;;;5.55;3.70;;;21.00;40.60;;;;;;6191916;23;20419;-93
2021/04/22 11:50:57;;;;;;;4.07;3.35;;;21.00;40.00;;;;;;6193524;23;20032;-91
2021/04/22 11:53:41;;;;;;;5.43;4.18;;;21.10;39.90;;;;;;6220989;23;20063;-92
2021/04/22 11:56:13;;;;;;;3.85;3.28;;;21.20;38.20;;;;;;6193709;23;20099;-92
2021/04/22 11:58:41;;;;;;;3.60;3.30;;;21.20;38.80;;;;;;6196581;23;20048;-92
2021/04/22 12:01:11;;;;;;;4.38;3.75;;;21.10;38.20;;;;;;6205112;23;20030;-93
2021/04/22 12:03:41;;;;;;;3.50;2.97;;;20.90;37.50;;;;;;6199490;22;20125;-94
2021/04/22 12:06:16;;;;;;;4.20;3.30;;;20.80;38.20;;;;;;6209961;22;20025;-92
2021/04/22 12:08:51;;;;;;;7.05;4.07;;;20.70;38.60;;;;;;6240270;22;20035;-92
2021/04/22 12:11:21;;;;;;;6.97;3.88;;;20.70;38.60;;;;;;6229441;22;20023;-93
2021/04/22 12:13:50;;;;;;;5.00;3.58;;;20.80;38.80;;;;;;6210984;23;20012;-94
2021/04/22 12:16:24;;;;;;;5.53;3.10;;;20.90;38.80;;;;;;6248006;22;20123;-95
2021/04/22 12:18:51;;;;;;;4.35;3.10;;;21.20;38.40;;;;;;6232215;23;20008;-95
2021/04/22 12:21:24;;;;;;;4.53;3.20;;;21.30;37.60;;;;;;6215789;23;20004;-95
2021/04/22 12:24:21;;;;;;;3.72;3.10;;;21.30;37.60;;;;;;6235500;23;19996;-94
2021/04/22 12:29:26;;;;;;;3.90;3.40;;;21.00;37.10;;;;;;6293875;22;20298;-93
2021/04/22 12:32:04;;;;;;;6.40;3.78;;;20.70;37.60;;;;;;6271686;22;20058;-95
2021/04/22 12:34:35;;;;;;;4.80;3.80;;;20.50;37.50;;;;;;6275109;22;19995;-93
2021/04/22 12:37:10;;;;;;;4.57;3.17;;;20.10;37.60;;;;;;6248743;22;20016;-93
2021/04/22 12:39:58;;;;;;;5.35;3.25;;;19.80;38.40;;;;;;6287732;22;20019;-93
2021/04/22 12:45:20;;;;;;;10.40;4.25;;;19.60;38.20;;;;;;6234507;22;20975;-92
2021/04/22 12:47:54;;;;;;;3.58;3.10;;;19.50;37.80;;;;;;6246952;22;20014;-93
2021/04/22 12:50:28;;;;;;;;;;;19.40;38.40;;;;;;6210697;23;20020;-94
2021/04/22 12:53:05;;;;;;;3.58;3.15;;;19.30;38.40;;;;;;6232141;23;19911;-94
2021/04/22 12:55:34;;;;;;;2.92;2.60;;;19.20;39.80;;;;;;6235721;23;20007;-95
2021/04/22 12:58:18;;;;;;;2.85;2.50;;;19.10;39.70;;;;;;6213290;23;20016;-93
2021/04/22 13:01:13;;;;;;;6.25;2.60;;;19.10;41.00;;;;;;6234104;22;20035;-94
2021/04/22 13:03:49;;;;;;;2.47;2.28;;;19.40;42.40;;;;;;6267373;23;20172;-93
2021/04/22 13:06:20;;;;;;;3.90;2.45;;;20.10;43.30;;;;;;6235423;23;20027;-95
2021/04/22 13:08:54;;;;;;;2.67;2.40;;;20.80;43.30;;;;;;6261084;23;20056;-95
2021/04/22 13:11:26;;;;;;;3.10;2.80;;;21.50;42.50;;;;;;6241001;23;20034;-94
2021/04/22 13:14:22;;;;;;;2.58;2.38;;;21.80;41.60;;;;;;6212784;23;19992;-94
2021/04/22 13:16:50;;;;;;;3.95;2.95;;;21.80;40.50;;;;;;6259823;22;20039;-94
2021/04/22 13:19:35;;;;;;;4.05;3.63;;;21.60;39.80;;;;;;6274213;22;20042;-95
2021/04/22 13:22:04;;;;;;;3.38;3.08;;;21.00;39.10;;;;;;6286392;22;20008;-95
2021/04/22 13:24:37;;;;;;;5.68;2.90;;;20.50;39.80;;;;;;6297706;22;20138;-95
2021/04/22 13:27:06;;;;;;;2.83;2.53;;;20.10;40.10;;;;;;6292135;22;20008;-91
2021/04/22 13:29:45;;;;;;;3.83;3.40;;;19.80;40.70;;;;;;6294522;22;20166;-95
2021/04/22 13:40:40;;;;;;;3.67;2.88;;;19.60;44.00;;;;;;6210766;22;20031;-94
2021/04/22 13:43:11;;;;;;;2.60;2.40;;;20.50;44.40;;;;;;6235097;22;20020;-89
2021/04/22 13:45:37;;;;;;;3.22;2.95;;;21.60;44.30;;;;;;6234592;22;20014;-94
2021/04/22 13:48:11;;;;;;;4.53;3.00;;;22.60;43.30;;;;;;6284491;22;20023;-93
2021/04/22 13:50:38;;;;;;;;;;;23.40;41.20;;;;;;6289953;22;20007;-92
2021/04/22 13:53:07;;;;;;;4.63;3.70;;;23.70;38.90;;;;;;6291544;22;19926;-93
2021/04/22 13:55:54;;;;;;;11.32;6.22;;;24.00;40.40;;;;;;6286966;22;20460;-92
2021/04/22 13:58:35;;;;;;;13.93;6.57;;;24.40;39.50;;;;;;6280882;22;20023;-92
2021/04/22 14:01:04;;;;;;;24.08;10.23;;;24.80;39.40;;;;;;6283135;22;20422;-93
2021/04/22 14:03:36;;;;;;;12.25;6.63;;;25.20;39.50;;;;;;6281883;22;20074;-91
2021/04/22 14:06:04;;;;;;;12.67;6.50;;;25.50;39.20;;;;;;6281291;22;20007;-92
2021/04/22 14:08:36;;;;;;;14.85;7.05;;;25.90;39.00;;;;;;6279640;22;20008;-92
2021/04/22 14:11:14;;;;;;;12.38;7.47;;;26.20;38.00;;;;;;6279634;22;20030;-92
2021/04/22 14:13:40;;;;;;;11.07;6.18;;;26.40;37.50;;;;;;6284084;22;20019;-92
2021/04/22 14:16:07;;;;;;;5.70;4.10;;;26.60;38.20;;;;;;6282591;22;20000;-92
2021/04/22 14:18:33;;;;;;;9.05;4.35;;;26.80;38.20;;;;;;6271341;22;20442;-94
2021/04/22 14:20:58;;;;;;;5.43;3.90;;;26.90;37.50;;;;;;6252962;22;19996;-93
2021/04/22 14:23:24;;;;;;;4.80;3.08;;;26.70;37.00;;;;;;6251083;22;20050;-93
2021/04/22 14:25:50;;;;;;;7.68;4.07;;;26.20;36.70;;;;;;6252887;22;19996;-93
2021/04/22 14:28:17;;;;;;;7.65;4.25;;;25.50;36.80;;;;;;6252080;22;20106;-94
2021/04/22 14:30:43;;;;;;;4.15;3.35;;;24.70;37.00;;;;;;6250571;22;20004;-91
2021/04/22 14:33:09;;;;;;;4.30;2.80;;;23.80;37.50;;;;;;6221153;22;20029;-95
2021/04/22 14:36:05;;;;;;;6.32;3.92;;;23.00;38.50;;;;;;6255738;22;20039;-93
2021/04/22 14:38:47;;;;;;;7.18;4.00;;;22.30;39.70;;;;;;6252257;22;20042;-95
2021/04/22 14:41:13;;;;;;;6.78;4.43;;;21.60;40.60;;;;;;6253029;22;20027;-93
2021/04/22 14:43:39;;;;;;;7.05;3.92;;;21.00;41.70;;;;;;6271933;22;20008;-93
2021/04/22 14:46:05;;;;;;;7.88;5.03;;;20.60;42.30;;;;;;6273638;22;20042;-93
2021/04/22 14:48:33;;;;;;;9.32;5.32;;;20.20;42.80;;;;;;6301766;22;20035;-95
2021/04/22 14:51:00;;;;;;;8.35;4.63;;;19.90;43.30;;;;;;6276086;22;20022;-94
2021/04/22 14:53:28;;;;;;;6.50;4.30;;;19.50;43.70;;;;;;6276802;22;19992;-92
2021/04/22 14:55:54;;;;;;;4.82;3.85;;;19.20;44.00;;;;;;6251608;22;19995;-92
2021/04/22 14:58:21;;;;;;;6.90;3.30;;;18.90;44.30;;;;;;6270231;22;20025;-95
2021/04/22 15:00:50;;;;;;;2.50;2.25;;;18.70;44.90;;;;;;6255886;22;20083;-92
2021/04/22 15:03:16;;;;;;;3.05;2.75;;;18.60;44.80;;;;;;6254342;22;20023;-92
2021/04/22 15:05:43;;;;;;;4.70;2.80;;;18.60;44.90;;;;;;6252009;22;19995;-93
2021/04/22 15:08:14;;;;;;;2.58;2.33;;;18.60;45.20;;;;;;6251880;22;20018;-92
2021/04/22 15:10:41;;;;;;;3.63;2.67;;;18.60;45.30;;;;;;6251954;22;20444;-92
2021/04/22 15:13:09;;;;;;;3.72;2.80;;;18.60;45.50;;;;;;6226409;22;19999;-92
2021/04/22 15:15:35;;;;;;;4.63;3.00;;;18.60;45.80;;;;;;6250629;22;20251;-90
2021/04/22 15:18:01;;;;;;;4.10;2.80;;;18.40;46.60;;;;;;6222265;22;20004;-89
2021/04/22 15:20:29;;;;;;;3.85;2.75;;;18.20;46.80;;;;;;6246670;22;19996;-91
2021/04/22 15:22:59;;;;;;;3.50;3.13;;;18.00;47.70;;;;;;6220721;23;20004;-93
2021/04/22 15:25:26;;;;;;;5.50;3.60;;;17.80;47.50;;;;;;6220796;23;20000;-90
2021/04/22 15:27:52;;;;;;;4.78;3.63;;;17.60;48.00;;;;;;6249136;22;20036;-89
2021/04/22 15:30:23;;;;;;;3.67;3.10;;;17.50;48.50;;;;;;6222005;23;20387;-89
2021/04/22 15:33:08;;;;;;;4.32;3.45;;;17.30;49.30;;;;;;6249708;23;20071;-90
2021/04/22 15:36:07;;;;;;;3.28;2.70;;;17.10;49.70;;;;;;6198962;23;20048;-92
2021/04/22 15:38:32;;;;;;;3.72;2.85;;;17.00;50.90;;;;;;6192498;23;20431;-92
2021/04/22 15:40:58;;;;;;;3.67;3.38;;;16.80;50.70;;;;;;6190890;23;20001;-90
2021/04/22 15:43:25;;;;;;;4.03;3.22;;;16.70;51.10;;;;;;6192225;23;20012;-89
2021/04/22 15:45:52;;;;;;;4.78;4.05;;;16.60;51.70;;;;;;6193067;23;20098;-91
2021/04/22 15:48:20;;;;;;;4.85;3.58;;;16.40;51.90;;;;;;6192300;23;20011;-90
2021/04/22 15:51:09;;;;;;;4.90;4.05;;;16.30;52.60;;;;;;6192876;23;19997;-92
2021/04/22 15:53:35;;;;;;;4.35;3.88;;;16.20;53.80;;;;;;6195393;23;20004;-94
2021/04/22 15:56:26;;;;;;;3.60;3.30;;;16.00;53.60;;;;;;6220548;23;20004;-91
2021/04/22 15:58:53;;;;;;;;;;;15.90;53.90;;;;;;6221128;23;20369;-90
2021/04/22 16:01:19;;;;;;;8.13;4.80;;;15.80;54.70;;;;;;6193466;23;19910;-94
2021/04/22 16:03:45;;;;;;;4.18;3.47;;;15.70;54.20;;;;;;6193962;23;20000;-91
2021/04/22 16:06:11;;;;;;;4.20;3.38;;;15.70;54.90;;;;;;6193951;23;20028;-93
2021/04/22 16:08:41;;;;;;;3.67;3.15;;;15.80;55.20;;;;;;6223212;23;20013;-93
2021/04/22 16:11:09;;;;;;;3.38;3.08;;;15.80;55.00;;;;;;6196062;23;20005;-91
2021/04/22 16:13:41;;;;;;;5.10;4.03;;;15.90;55.20;;;;;;6194879;23;20130;-94
2021/04/22 16:16:08;;;;;;;5.97;4.77;;;16.20;55.20;;;;;;6196867;23;20009;-91
2021/04/22 16:18:33;;;;;;;5.90;4.15;;;16.40;54.30;;;;;;6194978;23;19996;-95
2021/04/22 16:21:01;;;;;;;7.70;4.60;;;16.40;54.00;;;;;;6194980;23;20024;-93
2021/04/22 16:23:27;;;;;;;9.77;4.95;;;16.50;54.30;;;;;;6196555;23;20009;-94
2021/04/22 16:25:54;;;;;;;4.85;4.35;;;16.50;54.30;;;;;;6222826;23;20028;-91
2021/04/22 16:28:21;;;;;;;4.88;4.25;;;16.50;54.10;;;;;;6193365;23;20012;-93
2021/04/22 16:30:57;;;;;;;5.07;3.17;;;16.50;53.90;;;;;;6222625;23;20047;-90
2021/04/22 16:33:23;;;;;;;4.28;2.90;;;16.30;54.20;;;;;;6194276;23;20008;-92
2021/04/22 16:35:51;;;;;;;4.45;3.00;;;16.30;54.30;;;;;;6196390;23;20054;-95
2021/04/22 16:38:17;;;;;;;3.70;3.33;;;16.20;55.80;;;;;;6193488;23;20324;-93
2021/04/22 16:40:43;;;;;;;3.78;3.25;;;16.10;55.60;;;;;;6220439;23;20089;-92
2021/04/22 16:43:09;;;;;;;4.05;3.55;;;16.10;55.50;;;;;;6195917;23;20056;-93
2021/04/22 16:45:37;;;;;;;4.75;3.10;;;16.00;55.60;;;;;;6192751;23;19997;-92
2021/04/22 16:48:03;;;;;;;5.30;3.78;;;15.90;56.00;;;;;;6192444;23;20380;-91
2021/04/22 16:50:29;;;;;;;4.28;3.50;;;15.80;56.80;;;;;;6217858;23;20028;-92
2021/04/22 16:52:55;;;;;;;4.43;3.65;;;15.70;56.60;;;;;;6193302;23;20000;-92
2021/04/22 16:55:37;;;;;;;4.13;3.63;;;15.50;57.10;;;;;;6197070;23;20005;-93
2021/04/22 16:58:04;;;;;;;4.55;3.88;;;15.30;57.40;;;;;;6168189;23;20036;-91
2021/04/22 17:00:31;;;;;;;5.88;4.45;;;15.10;57.80;;;;;;6223597;23;20005;-91
2021/04/22 17:02:57;;;;;;;5.68;3.97;;;14.90;58.30;;;;;;6199070;23;20305;-92
2021/04/22 17:05:24;;;;;;;5.90;3.97;;;14.80;59.10;;;;;;6224872;23;20004;-92
2021/04/22 17:07:55;;;;;;;7.80;4.32;;;14.60;59.30;;;;;;6227128;23;20004;-92
2021/04/22 17:10:22;;;;;;;5.45;3.75;;;14.40;59.70;;;;;;6200181;23;20001;-94
2021/04/22 17:12:49;;;;;;;7.00;4.28;;;14.30;60.00;;;;;;6173945;23;20004;-93
2021/04/22 17:15:18;;;;;;;5.38;4.20;;;14.20;60.30;;;;;;6199000;23;20007;-94
2021/04/22 17:17:44;;;;;;;7.78;4.93;;;14.00;60.40;;;;;;6195052;23;19997;-93
2021/04/22 17:20:10;;;;;;;7.97;4.22;;;13.90;60.60;;;;;;6237485;22;20022;-94
2021/04/22 17:22:36;;;;;;;9.32;4.70;;;13.80;60.70;;;;;;6283902;22;20300;-94
2021/04/22 17:25:04;;;;;;;10.52;5.95;;;13.70;61.00;;;;;;6286935;22;20010;-93
2021/04/22 17:27:32;;;;;;;9.32;5.53;;;13.60;61.50;;;;;;6289517;22;19996;-95
2021/04/22 17:29:58;;;;;;;9.18;6.30;;;13.50;62.10;;;;;;6286379;22;20031;-94
2021/04/22 17:32:24;;;;;;;15.18;9.32;;;13.40;63.00;;;;;;6287982;22;20003;-94
2021/04/22 17:34:50;;;;;;;15.32;8.20;;;13.30;63.80;;;;;;6282402;22;19999;-92
2021/04/22 17:37:16;;;;;;;10.85;6.28;;;13.20;64.70;;;;;;6280211;22;19996;-95
2021/04/22 17:39:43;;;;;;;8.70;5.13;;;13.20;65.60;;;;;;6280790;22;20003;-94
2021/04/22 17:42:09;;;;;;;5.32;4.45;;;13.20;65.90;;;;;;6281083;22;20004;-93
2021/04/22 17:44:35;;;;;;;7.30;4.75;;;13.10;65.70;;;;;;6280183;22;20322;-94
2021/04/22 17:47:02;;;;;;;6.63;3.92;;;13.10;66.00;;;;;;6279743;22;20031;-95
2021/04/22 17:49:30;;;;;;;9.02;5.25;;;13.00;65.70;;;;;;6277848;22;20018;-93
2021/04/22 17:51:56;;;;;;;11.48;6.22;;;13.00;66.40;;;;;;6278460;22;20007;-95
2021/04/22 17:54:22;;;;;;;12.00;6.18;;;12.90;66.60;;;;;;6281696;22;20004;-94
2021/04/22 17:56:51;;;;;;;10.32;5.47;;;12.90;66.40;;;;;;6285359;22;19996;-94
2021/04/22 17:59:17;;;;;;;7.95;5.05;;;12.80;66.40;;;;;;6281749;22;20026;-94
2021/04/22 18:01:43;;;;;;;13.18;5.97;;;12.80;66.40;;;;;;6278936;22;20000;-94
2021/04/22 18:04:09;;;;;;;11.15;5.68;;;12.80;66.20;;;;;;6280549;22;20083;-94
2021/04/22 18:06:35;;;;;;;10.73;5.35;;;12.70;66.10;;;;;;6281237;22;19995;-95
2021/04/22 18:09:02;;;;;;;8.88;5.43;;;12.70;67.00;;;;;;6279929;22;20007;-95
2021/04/22 18:11:29;;;;;;;8.18;5.00;;;12.70;66.90;;;;;;6281033;22;19996;-94
2021/04/22 18:13:55;;;;;;;6.07;4.10;;;12.60;67.00;;;;;;6279531;22;20359;-95
2021/04/22 18:16:21;;;;;;;9.10;3.78;;;12.60;66.80;;;;;;6280555;22;19999;-93
2021/04/22 18:18:47;;;;;;;8.45;4.57;;;12.60;67.00;;;;;;6265818;22;20427;-94
2021/04/22 18:21:13;;;;;;;7.80;4.18;;;12.60;66.70;;;;;;6247397;22;20020;-95
2021/04/22 18:23:39;;;;;;;7.95;4.13;;;12.60;66.80;;;;;;6249357;22;20003;-94
2021/04/22 18:26:05;;;;;;;8.23;4.38;;;12.60;66.90;;;;;;6248810;22;20000;-94
2021/04/22 18:28:31;;;;;;;9.30;4.70;;;12.60;66.90;;;;;;6247532;22;20087;-94
2021/04/22 18:30:58;;;;;;;8.80;4.70;;;12.60;66.90;;;;;;6247299;22;20062;-93
2021/04/22 18:33:25;;;;;;;8.43;4.88;;;12.60;66.80;;;;;;6247991;22;19997;-94